Time;durP1;ratioP1;P1;durP2;ratioP2;P2;SDS_P1;SDS_P2;PMS_P1;PMS_P2;Temp;Humidity;BMP_temperature;BMP_pressure;BME280_temperature;BME280_humidity;BME280_pressure;Samples;Min_cycle;Max_cycle;Signal;HPM_P1;HPM_P2
2021/06/28 00:01:05;;;;;;;27.52;12.70;;;;;;;22.10;71.55;98871.47;5070311;28;20135;-69
2021/06/28 00:03:32;;;;;;;20.40;13.40;;;;;;;22.02;72.12;98876.59;5036399;28;20044;-68
2021/06/28 00:05:58;;;;;;;27.02;13.32;;;;;;;22.00;72.43;98886.53;5070676;28;20043;-66
2021/06/28 00:08:24;;;;;;;22.25;13.30;;;;;;;22.04;72.15;98872.84;5071450;28;20047;-69
2021/06/28 00:10:50;;;;;;;20.17;13.57;;;;;;;22.01;72.24;98874.91;5069796;28;20040;-67
2021/06/28 00:13:16;;;;;;;25.40;14.20;;;;;;;21.74;72.75;98835.50;5069962;28;20399;-66
2021/06/28 00:15:42;;;;;;;20.00;14.93;;;;;;;21.88;73.04;98875.94;5071048;28;20593;-67
2021/06/28 00:18:09;;;;;;;27.60;17.52;;;;;;;21.73;73.40;98853.28;5069904;28;20052;-67
2021/06/28 00:20:35;;;;;;;23.73;15.60;;;;;;;21.82;73.47;98872.94;5071271;28;20144;-66
2021/06/28 00:23:02;;;;;;;30.05;15.93;;;;;;;21.67;73.78;98861.78;5069988;28;20154;-66
2021/06/28 00:25:28;;;;;;;27.17;15.88;;;;;;;21.67;73.88;98856.47;5071021;28;20490;-67
2021/06/28 00:27:54;;;;;;;32.63;16.05;;;;;;;21.62;73.82;98861.31;5071033;28;20131;-68
2021/06/28 00:30:22;;;;;;;20.55;15.15;;;;;;;21.69;73.70;98866.97;5069843;28;20067;-68
2021/06/28 00:32:48;;;;;;;27.05;15.80;;;;;;;21.69;73.79;98873.16;5069832;28;20442;-67
2021/06/28 00:35:14;;;;;;;22.20;15.40;;;;;;;21.70;74.05;98876.66;5071046;28;20075;-67
2021/06/28 00:37:41;;;;;;;26.63;15.45;;;;;;;21.67;73.52;98899.03;5070842;28;20097;-67
2021/06/28 00:40:09;;;;;;;28.05;15.30;;;;;;;21.83;73.35;98934.06;5070860;28;20079;-68
2021/06/28 00:42:35;;;;;;;21.80;13.50;;;;;;;21.91;73.41;98954.72;5070939;28;20056;-67
2021/06/28 00:45:22;;;;;;;24.40;13.90;;;;;;;21.79;73.20;98929.97;5070684;28;20064;-66
2021/06/28 00:47:50;;;;;;;24.80;13.82;;;;;;;21.82;73.40;98929.72;5071193;28;20048;-67
2021/06/28 00:50:16;;;;;;;22.52;13.85;;;;;;;21.94;73.17;98945.63;5070945;28;20036;-67
2021/06/28 00:52:42;;;;;;;21.02;13.00;;;;;;;21.94;73.27;98942.97;5069643;28;20051;-67
2021/06/28 00:55:09;;;;;;;13.93;12.07;;;;;;;21.96;73.12;98941.03;5069505;28;20048;-68
2021/06/28 00:57:35;;;;;;;17.85;12.73;;;;;;;21.96;73.04;98939.19;5070664;28;20036;-68
2021/06/28 01:00:02;;;;;;;21.25;12.38;;;;;;;21.99;73.09;98943.44;5071005;28;20488;-69
2021/06/28 01:02:28;;;;;;;20.10;11.65;;;;;;;22.05;73.06;98930.47;5070615;28;20076;-67
2021/06/28 01:04:54;;;;;;;16.60;11.32;;;;;;;22.02;72.40;98898.75;5070995;28;20071;-67
2021/06/28 01:07:19;;;;;;;21.05;12.55;;;;;;;22.17;72.42;98889.47;5069661;28;20054;-69
2021/06/28 01:09:45;;;;;;;19.02;12.10;;;;;;;22.14;72.06;98886.22;5070890;28;20048;-72
2021/06/28 01:12:11;;;;;;;18.70;11.93;;;;;;;22.26;72.07;98926.97;5070758;28;20043;-69
2021/06/28 01:14:37;;;;;;;16.15;12.32;;;;;;;22.31;71.85;98930.94;5071195;28;20048;-66
2021/06/28 01:17:03;;;;;;;15.90;12.23;;;;;;;22.37;71.68;98935.75;5069290;28;20061;-69
2021/06/28 01:19:33;;;;;;;17.60;12.10;;;;;;;22.41;71.46;98926.53;5071521;28;20071;-68
2021/06/28 01:22:01;;;;;;;22.77;13.32;;;;;;;22.31;71.58;98883.00;5070983;28;20071;-69
2021/06/28 01:24:26;;;;;;;25.35;13.57;;;;;;;22.37;71.54;98887.78;5069509;28;20049;-67
2021/06/28 01:26:52;;;;;;;17.70;12.85;;;;;;;22.35;71.87;98883.56;5069692;28;20097;-68
2021/06/28 01:29:18;;;;;;;15.02;13.43;;;;;;;22.38;71.40;98884.16;5070194;28;20437;-68
2021/06/28 01:31:44;;;;;;;22.67;13.70;;;;;;;22.51;71.17;98889.25;5071344;28;20120;-69
2021/06/28 01:34:10;;;;;;;21.13;14.02;;;;;;;22.47;71.25;98864.69;5036333;28;20086;-70
2021/06/28 01:36:42;;;;;;;23.45;14.02;;;;;;;22.55;71.03;98871.19;5070835;28;20044;-69
2021/06/28 01:39:08;;;;;;;19.38;13.77;;;;;;;22.43;71.14;98844.63;5070730;28;20051;-69
2021/06/28 01:41:33;;;;;;;22.02;13.30;;;;;;;22.47;71.18;98840.72;5071326;28;20128;-70
2021/06/28 01:43:59;;;;;;;20.10;13.57;;;;;;;22.42;71.32;98834.09;5071129;28;20472;-68
2021/06/28 01:46:25;;;;;;;19.38;12.85;;;;;;;22.60;70.87;98847.63;5071287;28;20052;-69
2021/06/28 01:48:51;;;;;;;18.85;13.32;;;;;;;22.60;70.67;98839.63;5070205;28;20095;-68
2021/06/28 01:51:16;;;;;;;24.67;13.90;;;;;;;22.80;70.24;98849.41;5071261;28;20497;-69
2021/06/28 01:53:42;;;;;;;22.65;13.35;;;;;;;22.90;69.50;98842.28;5069349;28;20094;-70
2021/06/28 01:56:08;;;;;;;26.02;13.88;;;;;;;23.07;69.07;98841.63;5070686;28;20497;-68
2021/06/28 01:58:34;;;;;;;27.90;14.23;;;;;;;23.14;68.74;98842.75;5069789;28;20045;-69
2021/06/28 02:01:01;;;;;;;19.23;14.32;;;;;;;23.19;68.73;98830.81;5070688;28;20097;-67
2021/06/28 02:03:27;;;;;;;19.85;14.23;;;;;;;23.01;68.81;98814.63;5069847;28;20418;-68
2021/06/28 02:05:58;;;;;;;20.15;13.75;;;;;;;23.09;68.99;98826.31;5070950;28;20056;-69
2021/06/28 02:08:26;;;;;;;26.15;15.05;;;;;;;23.22;68.48;98838.56;5069866;28;20040;-70
2021/06/28 02:10:56;;;;;;;27.83;17.48;;;;;;;23.38;67.82;98826.34;5070938;28;20045;-70
2021/06/28 02:13:24;;;;;;;31.90;14.95;;;;;;;23.52;67.32;98811.72;5071234;28;20037;-69
2021/06/28 02:15:51;;;;;;;28.00;14.25;;;;;;;23.59;67.04;98796.00;5073396;28;20401;-68
2021/06/28 02:18:16;;;;;;;21.08;15.23;;;;;;;23.53;67.46;98789.38;5074378;28;20057;-70
2021/06/28 02:20:42;;;;;;;22.77;14.98;;;;;;;23.55;67.19;98790.13;5074795;28;20067;-70
2021/06/28 02:23:20;;;;;;;19.13;14.70;;;;;;;23.54;67.56;98783.06;5074610;28;20036;-70
2021/06/28 02:26:04;;;;;;;23.05;14.80;;;;;;;23.71;66.79;98757.47;5074591;28;20056;-69
2021/06/28 02:28:33;;;;;;;19.70;14.15;;;;;;;24.30;64.54;98757.19;5072807;28;20041;-71
2021/06/28 02:30:59;;;;;;;19.20;14.18;;;;;;;24.75;62.98;98774.28;5074442;28;20051;-70
2021/06/28 02:33:26;;;;;;;15.90;13.57;;;;;;;25.07;61.95;98765.75;5074384;28;20469;-69
2021/06/28 02:35:53;;;;;;;28.13;13.48;;;;;;;25.34;60.66;98776.41;5074782;28;20379;-70
2021/06/28 02:38:18;;;;;;;18.08;12.82;;;;;;;25.96;58.63;98771.84;5074718;28;20048;-70
2021/06/28 02:40:44;;;;;;;19.42;12.52;;;;;;;26.30;57.34;98750.44;5073957;28;20036;-68
2021/06/28 02:43:31;;;;;;;21.75;12.90;;;;;;;26.49;56.38;98744.84;5085676;28;20135;-69
2021/06/28 02:45:57;;;;;;;22.67;12.90;;;;;;;26.06;57.99;98761.91;5072871;28;20409;-70
2021/06/28 02:48:23;;;;;;;22.45;12.88;;;;;;;26.12;57.46;98749.69;5074261;28;20047;-68
2021/06/28 02:50:50;;;;;;;20.17;12.75;;;;;;;26.39;56.61;98752.19;5055961;28;20094;-70
2021/06/28 02:53:17;;;;;;;18.17;12.38;;;;;;;26.37;56.46;98748.00;5074087;28;20141;-69
2021/06/28 02:55:48;;;;;;;22.23;12.52;;;;;;;26.50;56.42;98743.84;5073870;28;20041;-69
2021/06/28 02:58:15;;;;;;;17.52;12.35;;;;;;;26.76;55.68;98742.94;5073727;28;20460;-69
2021/06/28 03:00:41;;;;;;;19.20;13.32;;;;;;;26.77;55.21;98713.25;5072903;28;20405;-68
2021/06/28 03:03:19;;;;;;;28.63;14.68;;;;;;;27.06;54.71;98722.72;5130078;27;20132;-69
2021/06/28 03:05:57;;;;;;;25.58;14.52;;;;;;;27.50;52.88;98732.13;5110012;27;20177;-66
2021/06/28 03:08:36;;;;;;;18.05;13.70;;;;;;;27.76;52.74;98728.44;5130980;27;20177;-71
2021/06/28 03:11:15;;;;;;;23.17;14.25;;;;;;;27.33;54.04;98733.13;5131137;27;20180;-72
2021/06/28 03:13:53;;;;;;;22.95;14.65;;;;;;;27.58;52.63;98717.00;5110827;27;20384;-72
2021/06/28 03:16:31;;;;;;;22.02;13.95;;;;;;;27.48;53.44;98719.84;5110897;27;20380;-70
2021/06/28 03:19:09;;;;;;;22.95;13.63;;;;;;;28.12;51.24;98710.84;5110781;27;20384;-71
2021/06/28 03:21:49;;;;;;;24.63;13.27;;;;;;;27.41;53.33;98721.53;5070485;28;20417;-70
2021/06/28 03:24:27;;;;;;;18.10;13.40;;;;;;;27.47;53.25;98727.06;5111109;27;20373;-73
2021/06/28 03:27:06;;;;;;;23.15;12.80;;;;;;;26.77;55.05;98718.63;5070173;28;20756;-69
2021/06/28 03:29:44;;;;;;;24.08;13.23;;;;;;;26.57;55.57;98696.59;5070419;28;20402;-70
2021/06/28 03:32:22;;;;;;;17.10;13.77;;;;;;;26.39;56.49;98713.81;5070244;27;20391;-71
2021/06/28 03:35:00;;;;;;;20.17;13.68;;;;;;;25.99;57.39;98720.63;5110514;27;20377;-69
2021/06/28 03:37:37;;;;;;;24.35;14.45;;;;;;;26.04;57.85;98737.09;5089981;27;20134;-69
2021/06/28 03:40:16;;;;;;;20.58;13.80;;;;;;;26.82;55.17;98718.97;5110539;27;20376;-69
2021/06/28 03:42:53;;;;;;;24.35;14.23;;;;;;;27.74;52.39;98700.88;5070417;28;20387;-69
2021/06/28 03:45:32;;;;;;;23.50;15.75;;;;;;;27.82;52.15;98703.56;5090343;28;20377;-70
2021/06/28 03:48:10;;;;;;;18.40;14.43;;;;;;;28.36;50.68;98690.28;5069561;28;20761;-70
2021/06/28 03:50:48;;;;;;;19.55;13.48;;;;;;;28.45;50.40;98694.59;5069798;28;20378;-70
2021/06/28 03:53:26;;;;;;;21.77;15.48;;;;;;;28.11;50.78;98684.97;5131025;27;20383;-70
2021/06/28 03:56:07;;;;;;;19.20;15.40;;;;;;;28.63;49.61;98672.81;5110621;27;20384;-71
2021/06/28 03:58:45;;;;;;;24.85;16.60;;;;;;;28.71;49.63;98691.59;5069693;28;20394;-70
2021/06/28 04:01:23;;;;;;;20.83;14.52;;;;;;;29.08;48.57;98688.19;5070236;28;20410;-70
2021/06/28 04:04:02;;;;;;;21.85;14.80;;;;;;;28.93;48.75;98687.25;5110896;27;20782;-69
2021/06/28 04:06:38;;;;;;;20.05;14.48;;;;;;;28.94;48.72;98689.78;5110551;27;20136;-68
2021/06/28 04:09:16;;;;;;;19.88;14.70;;;;;;;28.98;48.45;98669.53;5070040;28;20390;-68
2021/06/28 04:11:53;;;;;;;19.80;13.80;;;;;;;29.20;48.39;98673.25;5069697;28;20146;-70
2021/06/28 04:14:31;;;;;;;20.13;13.77;;;;;;;29.37;47.76;98674.78;5110712;27;20387;-68
2021/06/28 04:17:08;;;;;;;18.73;13.05;;;;;;;29.49;47.50;98664.41;5090358;27;20134;-70
2021/06/28 04:19:46;;;;;;;23.17;13.15;;;;;;;29.65;46.58;98658.00;5110142;27;20384;-70
2021/06/28 04:22:23;;;;;;;18.95;12.30;;;;;;;29.45;47.68;98671.19;5110989;27;1360823;-69
2021/06/28 04:25:02;;;;;;;18.75;13.32;;;;;;;29.71;46.98;98659.97;5109101;27;20372;-69
2021/06/28 04:27:40;;;;;;;17.50;13.60;;;;;;;29.76;46.96;98667.53;5129659;27;20374;-69
2021/06/28 04:30:19;;;;;;;18.25;12.80;;;;;;;29.97;46.33;98657.66;5090159;28;20401;-70
2021/06/28 04:32:57;;;;;;;20.20;12.75;;;;;;;30.45;45.35;98657.22;5070013;27;20736;-69
2021/06/28 04:35:35;;;;;;;17.23;12.75;;;;;;;30.33;45.25;98659.59;5090017;27;20481;-69
2021/06/28 04:38:13;;;;;;;15.00;12.60;;;;;;;30.58;44.94;98639.34;5109994;27;20376;-69
2021/06/28 04:40:52;;;;;;;19.27;14.30;;;;;;;30.70;44.57;98638.88;5110503;27;20381;-70
2021/06/28 04:43:30;;;;;;;21.10;13.90;;;;;;;30.62;44.43;98659.56;5069847;28;20401;-70
2021/06/28 04:46:08;;;;;;;21.42;13.35;;;;;;;30.90;43.76;98661.50;5110843;27;20376;-69
2021/06/28 04:48:46;;;;;;;21.85;12.80;;;;;;;31.47;42.50;98674.06;5070109;28;20379;-69
2021/06/28 04:51:25;;;;;;;19.38;11.75;;;;;;;32.68;40.77;98661.81;5089938;28;20129;-69
2021/06/28 04:54:03;;;;;;;26.45;13.15;;;;;;;33.43;38.89;98682.38;5069241;28;20389;-68
2021/06/28 04:56:42;;;;;;;23.48;12.07;;;;;;;34.19;37.02;98680.00;5069601;28;20748;-69
2021/06/28 04:59:20;;;;;;;18.92;11.93;;;;;;;33.45;38.36;98677.63;5130088;27;20165;-70
2021/06/28 05:01:57;;;;;;;18.77;12.57;;;;;;;33.05;39.12;98672.13;5069361;28;20390;-70
2021/06/28 05:04:36;;;;;;;29.13;12.32;;;;;;;33.80;37.65;98676.31;5089661;27;20377;-69
2021/06/28 05:07:15;;;;;;;14.13;11.65;;;;;;;33.75;37.60;98695.09;5069017;28;20383;-69
2021/06/28 05:09:53;;;;;;;16.60;11.80;;;;;;;34.52;36.27;98668.19;5109729;27;20853;-69
2021/06/28 05:12:31;;;;;;;16.33;11.38;;;;;;;35.23;35.09;98673.38;5110129;27;20589;-68
2021/06/28 05:15:10;;;;;;;16.60;12.07;;;;;;;34.88;35.66;98668.41;5089710;28;20187;-68
2021/06/28 05:17:48;;;;;;;16.75;11.90;;;;;;;34.55;36.24;98649.56;5109806;27;20911;-68
2021/06/28 05:20:27;;;;;;;15.50;12.25;;;;;;;35.17;34.75;98663.41;5069860;28;20379;-68
2021/06/28 05:23:03;;;;;;;19.35;12.20;;;;;;;34.86;35.19;98662.34;5106003;27;1370558;-69
2021/06/28 05:25:42;;;;;;;18.05;11.65;;;;;;;36.10;33.14;98664.22;5069598;27;20753;-69
2021/06/28 05:28:18;;;;;;;18.67;12.40;;;;;;;36.34;33.13;98667.09;5105774;27;1382208;-67
2021/06/28 05:30:57;;;;;;;18.08;11.95;;;;;;;35.48;34.04;98655.19;5069566;27;20387;-69
2021/06/28 05:33:34;;;;;;;17.17;11.60;;;;;;;34.50;36.25;98652.09;5110409;27;20384;-68
2021/06/28 05:36:12;;;;;;;21.20;12.63;;;;;;;33.42;38.41;98661.75;5110097;27;20372;-67
2021/06/28 05:38:51;;;;;;;18.15;11.43;;;;;;;33.10;38.92;98661.50;5110187;27;20738;-68
2021/06/28 05:41:29;;;;;;;17.20;13.10;;;;;;;32.59;40.40;98665.75;5049797;28;20396;-69
2021/06/28 05:44:07;;;;;;;22.05;13.25;;;;;;;32.46;41.88;98675.50;5069920;28;20402;-68
2021/06/28 05:46:45;;;;;;;18.45;12.88;;;;;;;32.94;40.54;98672.75;5110107;27;20753;-68
2021/06/28 05:49:24;;;;;;;16.17;12.80;;;;;;;31.90;42.49;98658.56;5069536;28;20382;-68
2021/06/28 05:52:03;;;;;;;19.25;13.50;;;;;;;32.01;42.60;98666.16;5069482;28;20386;-68
2021/06/28 05:54:42;;;;;;;35.78;28.95;;;;;;;32.09;42.33;98657.03;5110457;27;20380;-67
2021/06/28 05:57:22;;;;;;;21.25;14.23;;;;;;;32.55;41.39;98671.59;5069937;28;20398;-67
2021/06/28 06:00:00;;;;;;;19.90;13.80;;;;;;;33.02;40.54;98685.28;5110443;27;20707;-67
2021/06/28 06:02:38;;;;;;;21.77;13.25;;;;;;;32.62;41.52;98684.31;5069865;28;20380;-68
2021/06/28 06:05:17;;;;;;;21.63;13.23;;;;;;;31.97;42.26;98672.16;5110340;27;20384;-68
2021/06/28 06:07:54;;;;;;;19.45;13.50;;;;;;;32.16;42.00;98644.34;5089691;27;20731;-68
2021/06/28 06:10:33;;;;;;;15.90;13.80;;;;;;;32.54;41.36;98678.03;5049922;28;20393;-68
2021/06/28 06:13:11;;;;;;;31.35;15.27;;;;;;;32.91;40.55;98691.31;5090379;27;20392;-68
2021/06/28 06:15:49;;;;;;;19.35;14.10;;;;;;;33.59;39.01;98697.41;5069908;28;20387;-68
2021/06/28 06:18:27;;;;;;;17.35;13.68;;;;;;;34.40;37.24;98700.63;5110265;27;20384;-69
2021/06/28 06:21:06;;;;;;;16.50;13.38;;;;;;;35.11;36.27;98696.91;5110882;27;20916;-69
2021/06/28 06:23:43;;;;;;;20.80;13.77;;;;;;;35.55;35.14;98685.88;5069874;27;20391;-69
2021/06/28 06:26:21;;;;;;;15.13;13.18;;;;;;;35.65;35.19;98691.66;5070037;28;20383;-68
2021/06/28 06:28:57;;;;;;;19.92;13.88;;;;;;;36.15;34.07;98697.03;5106525;27;1374834;-69
2021/06/28 06:31:34;;;;;;;18.85;13.65;;;;;;;36.37;33.50;98702.03;5107225;27;1359515;-69
2021/06/28 06:34:11;;;;;;;21.50;12.05;;;;;;;37.87;31.34;98694.56;5069993;28;20752;-69
2021/06/28 06:36:50;;;;;;;15.25;11.38;;;;;;;37.59;31.34;98687.06;5070193;28;20387;-69
2021/06/28 06:39:28;;;;;;;30.10;14.18;;;;;;;36.90;33.13;98680.41;5110756;27;20381;-69
2021/06/28 06:42:06;;;;;;;22.08;14.05;;;;;;;36.93;32.68;98677.19;5090216;28;20381;-68
2021/06/28 06:44:44;;;;;;;18.20;13.05;;;;;;;37.07;32.43;98678.66;5110260;27;20754;-68
2021/06/28 06:47:23;;;;;;;18.63;12.25;;;;;;;38.10;31.04;98677.34;5069281;28;20914;-69
2021/06/28 06:50:01;;;;;;;28.73;12.73;;;;;;;38.62;30.04;98688.28;5069962;28;20390;-69
2021/06/28 06:52:40;;;;;;;18.90;12.50;;;;;;;37.93;31.24;98690.91;5110610;27;20387;-69
2021/06/28 06:55:17;;;;;;;23.05;12.13;;;;;;;38.21;31.18;98692.06;5110017;27;20730;-68
2021/06/28 06:57:56;;;;;;;20.77;12.48;;;;;;;38.01;30.90;98687.81;5069470;28;20721;-68
2021/06/28 07:00:35;;;;;;;15.57;12.20;;;;;;;38.44;30.46;98692.81;5109947;27;20121;-69
2021/06/28 07:03:12;;;;;;;17.65;12.18;;;;;;;38.63;30.10;98695.41;5069482;28;20379;-69
2021/06/28 07:05:50;;;;;;;21.42;11.98;;;;;;;38.13;30.72;98688.59;5049717;28;20388;-69
2021/06/28 07:08:28;;;;;;;18.23;11.45;;;;;;;38.21;30.95;98681.97;5110305;27;20377;-67
2021/06/28 07:11:06;;;;;;;19.30;11.75;;;;;;;38.36;30.92;98695.09;5110512;27;20129;-68
2021/06/28 07:13:50;;;;;;;15.48;11.60;;;;;;;39.53;28.73;98698.19;5069981;28;20390;-69
2021/06/28 07:16:30;;;;;;;17.20;11.05;;;;;;;39.43;29.60;98699.91;5069671;27;20387;-69
2021/06/28 07:19:19;;;;;;;19.55;11.38;;;;;;;38.44;30.85;98694.72;5069843;28;20407;-69
2021/06/28 07:21:57;;;;;;;19.27;11.63;;;;;;;38.37;30.88;98696.78;5110288;27;20377;-68
2021/06/28 07:24:36;;;;;;;15.75;11.45;;;;;;;39.23;30.16;98714.03;5070077;28;20390;-68
2021/06/28 07:27:14;;;;;;;15.88;11.77;;;;;;;37.73;31.78;98706.78;5090141;28;20389;-69
2021/06/28 07:29:52;;;;;;;23.73;11.75;;;;;;;36.14;34.69;98706.25;5110103;27;20377;-70
2021/06/28 07:32:30;;;;;;;16.45;11.82;;;;;;;35.21;36.90;98702.69;5110446;27;20380;-69
2021/06/28 07:35:10;;;;;;;15.73;12.75;;;;;;;35.07;37.41;98714.72;5090047;27;20382;-71
2021/06/28 07:37:48;;;;;;;15.90;11.95;;;;;;;34.81;38.10;98696.63;5151679;27;20892;-69
2021/06/28 07:40:27;;;;;;;20.33;13.13;;;;;;;35.33;36.97;98712.66;5172479;27;20179;-66
2021/06/28 07:43:05;;;;;;;20.40;12.43;;;;;;;35.02;37.63;98701.78;5070089;27;20433;-68
2021/06/28 07:45:44;;;;;;;15.45;12.50;;;;;;;33.90;40.01;98702.19;5069918;28;20740;-68
2021/06/28 07:48:21;;;;;;;23.13;12.52;;;;;;;33.35;41.67;98707.84;5070102;28;20387;-67
2021/06/28 07:50:58;;;;;;;17.90;12.77;;;;;;;33.01;42.83;98708.81;5106325;27;1370902;-69
2021/06/28 07:53:34;;;;;;;16.27;14.63;;;;;;;33.36;42.01;98716.81;5110134;27;1382408;-68
2021/06/28 07:56:17;;;;;;;22.08;14.40;;;;;;;34.69;39.24;98710.09;5069171;28;20375;-71
2021/06/28 07:58:55;;;;;;;16.85;13.70;;;;;;;35.16;38.26;98705.25;5069597;28;20919;-68
2021/06/28 08:01:34;;;;;;;19.80;12.85;;;;;;;35.93;36.72;98704.00;5049283;28;20388;-67
2021/06/28 08:04:12;;;;;;;24.38;12.75;;;;;;;36.78;35.03;98704.91;5065204;28;20390;-70
2021/06/28 08:06:50;;;;;;;21.25;11.82;;;;;;;37.16;35.20;98700.97;5067526;28;20371;-70
2021/06/28 08:09:28;;;;;;;15.60;12.20;;;;;;;36.52;35.24;98699.78;5105911;27;20372;-68
2021/06/28 08:12:06;;;;;;;20.38;12.70;;;;;;;36.54;35.50;98703.09;5102793;27;20376;-68
2021/06/28 08:14:43;;;;;;;18.88;12.13;;;;;;;35.67;37.52;98692.28;5098196;27;1437201;-68
2021/06/28 08:17:20;;;;;;;19.40;12.07;;;;;;;35.26;38.18;98678.38;5099393;27;1375957;-66
2021/06/28 08:19:58;;;;;;;14.85;12.57;;;;;;;34.50;39.74;98673.81;5122389;27;20379;-67
2021/06/28 08:22:36;;;;;;;23.55;12.40;;;;;;;33.77;41.53;98665.88;5062233;28;21077;-66
2021/06/28 08:25:15;;;;;;;18.95;13.05;;;;;;;33.41;43.02;98660.91;5091402;27;1552416;-68
2021/06/28 08:27:53;;;;;;;24.90;12.68;;;;;;;33.26;43.00;98662.13;5062766;28;20883;-70
2021/06/28 08:30:29;;;;;;;24.10;12.98;;;;;;;32.96;43.46;98654.41;5097680;27;1368398;-69
2021/06/28 08:33:07;;;;;;;17.60;12.23;;;;;;;34.54;39.96;98647.06;5061345;28;20402;-69
2021/06/28 08:35:46;;;;;;;22.25;12.48;;;;;;;35.34;38.52;98656.38;5060810;28;20387;-70
2021/06/28 08:38:24;;;;;;;19.60;10.80;;;;;;;33.76;40.47;98620.81;5061342;28;20382;-71
2021/06/28 08:41:03;;;;;;;19.65;11.52;;;;;;;35.74;36.40;98621.47;5061550;28;20744;-69
2021/06/28 08:43:45;;;;;;;24.27;13.43;;;;;;;35.29;37.47;98612.66;5102250;27;20992;-68
2021/06/28 08:46:22;;;;;;;17.13;11.25;;;;;;;35.78;37.29;98619.13;5081234;28;20389;-67
2021/06/28 08:49:00;;;;;;;18.70;10.85;;;;;;;34.45;39.07;98605.75;5081304;27;20400;-68
2021/06/28 08:51:39;;;;;;;24.13;12.48;;;;;;;34.50;38.94;98613.25;5061584;28;20401;-67
2021/06/28 08:54:15;;;;;;;17.58;11.20;;;;;;;34.89;37.99;98623.03;5098573;27;1376370;-67
2021/06/28 08:56:52;;;;;;;17.25;11.50;;;;;;;33.37;41.48;98599.19;5097395;27;1366253;-68
2021/06/28 08:59:29;;;;;;;17.48;11.48;;;;;;;32.46;44.07;98577.22;5061922;28;20379;-69
2021/06/28 09:02:06;;;;;;;19.73;12.57;;;;;;;31.71;44.38;98560.06;5097228;27;1400264;-71
2021/06/28 09:05:02;;;;;;;20.08;11.60;;;;;;;31.42;45.54;98553.03;5101709;27;20912;-69
2021/06/28 09:07:40;;;;;;;21.88;12.52;;;;;;;31.10;46.29;98550.91;5058931;28;20950;-68
2021/06/28 09:10:35;;;;;;;25.25;11.80;;;;;;;30.94;47.49;98562.84;5059402;28;20876;-68
2021/06/28 09:13:12;;;;;;;21.80;12.15;;;;;;;30.90;47.69;98580.47;5078980;27;20898;-70
2021/06/28 09:15:50;;;;;;;20.30;13.13;;;;;;;30.86;48.39;98579.19;5091489;27;1565642;-69
2021/06/28 09:18:28;;;;;;;21.50;13.18;;;;;;;30.57;49.19;98563.94;5103297;27;20398;-71
2021/06/28 09:21:08;;;;;;;19.73;12.45;;;;;;;30.40;49.90;98559.81;5123997;27;20330;-70
2021/06/28 09:23:44;;;;;;;16.80;13.05;;;;;;;30.17;50.34;98557.31;5099266;27;1376444;-69
2021/06/28 09:26:28;;;;;;;21.10;13.50;;;;;;;29.95;50.85;98535.66;5063490;28;20764;-69
2021/06/28 09:29:08;;;;;;;24.08;12.95;;;;;;;30.09;50.92;98544.75;5103783;27;20968;-72
2021/06/28 09:31:45;;;;;;;20.17;13.52;;;;;;;29.62;53.30;98561.34;5096787;27;1494243;-66
2021/06/28 09:34:24;;;;;;;20.60;11.98;;;;;;;28.97;56.19;98586.25;5063956;28;20394;-68
2021/06/28 09:37:01;;;;;;;26.60;12.15;;;;;;;28.91;56.94;98603.97;5104684;27;20426;-67
2021/06/28 09:39:41;;;;;;;36.58;12.75;;;;;;;28.38;58.12;98597.63;5064194;28;20386;-69
2021/06/28 09:42:21;;;;;;;21.55;12.55;;;;;;;28.32;59.78;98622.56;5103716;27;20966;-70
2021/06/28 09:45:05;;;;;;;28.88;14.00;;;;;;;28.22;62.05;98635.31;5064875;28;20938;-67
2021/06/28 09:47:44;;;;;;;19.17;13.13;;;;;;;27.68;61.92;98682.75;5064035;28;20414;-68
2021/06/28 09:50:24;;;;;;;28.92;12.90;;;;;;;25.34;70.06;98670.16;5065517;28;20709;-68
2021/06/28 09:53:02;;;;;;;26.30;17.13;;;;;;;22.41;84.31;98654.72;4519548;27;17835476;-67
2021/06/28 09:55:59;;;;;;;25.88;17.13;;;;;;;22.29;87.82;98654.94;5109820;27;20947;-68
2021/06/28 09:58:52;;;;;;;21.65;15.20;;;;;;;22.10;88.03;98661.06;5085003;27;20399;-68
2021/06/28 10:01:28;;;;;;;21.27;10.93;;;;;;;21.66;85.49;98635.69;4722669;27;12022694;-68
2021/06/28 10:07:44;;;;;;;25.90;14.32;;;;;;;21.33;88.43;98703.25;5085594;27;20405;-67
2021/06/28 10:10:36;;;;;;;23.23;12.68;;;;;;;21.54;88.76;98744.84;5125889;27;20440;-67
2021/06/28 10:13:12;;;;;;;19.63;13.87;;;;;;;21.75;88.87;98806.09;4632200;27;15071363;-67
2021/06/28 10:16:09;;;;;;;23.30;13.43;;;;;;;21.36;87.17;98806.75;5090727;27;20403;-67
2021/06/28 10:18:46;;;;;;;26.80;14.23;;;;;;;21.31;89.08;98747.78;4509323;27;18532455;-68
2021/06/28 10:21:43;;;;;;;29.05;14.07;;;;;;;21.72;89.72;98758.44;5086810;27;20434;-67
2021/06/28 10:24:38;;;;;;;15.15;10.40;;;;;;;21.35;86.60;98735.91;5189407;27;20593;-68
2021/06/28 10:27:14;;;;;;;17.95;13.38;;;;;;;21.22;86.92;98722.75;4504106;27;18642166;-67
2021/06/28 10:30:14;;;;;;;21.98;13.85;;;;;;;21.06;87.30;98722.38;5045519;28;20381;-68
2021/06/28 10:33:09;;;;;;;16.48;11.95;;;;;;;21.14;87.20;98707.44;5086303;27;20430;-67
2021/06/28 10:36:13;;;;;;;26.35;14.10;;;;;;;21.18;86.95;98716.84;5085276;27;20403;-66
2021/06/28 10:39:10;;;;;;;17.95;11.75;;;;;;;21.43;86.36;98707.66;5177366;27;20396;-67
2021/06/28 10:42:05;;;;;;;17.92;10.70;;;;;;;21.64;83.21;98707.69;5085001;27;20403;-69
2021/06/28 10:44:58;;;;;;;27.83;13.25;;;;;;;21.47;84.60;98705.59;5084347;27;20399;-67
2021/06/28 10:48:11;;;;;;;25.73;11.98;;;;;;;21.67;83.86;98706.56;5125336;27;20391;-67
2021/06/28 10:51:04;;;;;;;25.25;12.90;;;;;;;21.94;85.27;98725.47;5064776;28;20134;-66
2021/06/28 10:53:56;;;;;;;20.95;11.75;;;;;;;22.14;83.84;98737.06;5085291;27;20403;-65
2021/06/28 10:56:43;;;;;;;17.23;12.43;;;;;;;22.42;82.90;98733.69;5083516;28;20528;-66
2021/06/28 10:59:30;;;;;;;22.17;12.30;;;;;;;22.28;82.11;98709.22;5084421;28;20047;-67
2021/06/28 11:02:19;;;;;;;18.83;11.73;;;;;;;22.29;81.22;98703.75;5083211;28;20559;-68
2021/06/28 11:05:07;;;;;;;22.48;11.30;;;;;;;22.50;80.46;98698.34;5083829;28;20420;-68
2021/06/28 11:07:51;;;;;;;25.38;14.32;;;;;;;22.59;82.37;98697.50;5068546;28;20047;-74
2021/06/28 11:10:38;;;;;;;21.88;14.95;;;;;;;22.58;82.70;98692.31;5069650;28;20093;-76
2021/06/28 11:13:23;;;;;;;21.05;12.55;;;;;;;22.52;78.51;98691.91;5083563;28;20096;-75
2021/06/28 11:16:33;;;;;;;26.92;15.10;;;;;;;22.40;80.46;98693.00;5084701;28;20183;-75
2021/06/28 11:19:51;;;;;;;24.45;15.02;;;;;;;22.29;79.52;98692.25;5068961;28;20125;-72
2021/06/28 11:22:47;;;;;;;38.72;17.77;;;;;;;22.29;79.97;98687.75;5084917;28;20616;-75
2021/06/28 11:25:16;;;;;;;36.25;17.63;;;;;;;22.36;79.05;98680.09;5068313;28;20048;-77
2021/06/28 11:28:13;;;;;;;32.15;15.48;;;;;;;22.43;79.08;98686.56;5086599;27;20418;-72
2021/06/28 11:31:13;;;;;;;52.25;17.33;;;;;;;22.57;79.34;98677.31;5087864;27;20398;-77
2021/06/28 11:34:11;;;;;;;47.28;16.35;;;;;;;22.74;79.69;98671.28;5112022;27;20418;-75
2021/06/28 11:36:38;;;;;;;58.60;14.25;;;;;;;22.80;76.39;98660.09;5086705;28;20044;-77
2021/06/28 11:39:24;;;;;;;37.70;14.35;;;;;;;23.08;78.62;98661.91;5093477;28;20042;-79
2021/06/28 11:42:22;;;;;;;31.30;15.13;;;;;;;23.36;76.95;98641.50;5095897;27;20764;-74
2021/06/28 11:45:13;;;;;;;19.05;12.25;;;;;;;23.81;77.47;98634.66;5085773;27;20397;-77
2021/06/28 11:48:07;;;;;;;15.63;11.82;;;;;;;24.01;74.20;98631.72;5126394;27;20844;-73
2021/06/28 11:51:28;;;;;;;19.77;12.90;;;;;;;24.16;75.04;98656.09;5189066;27;20942;-77
2021/06/28 11:54:36;;;;;;;21.52;11.50;;;;;;;24.19;72.48;98663.81;5129627;27;20392;-76
2021/06/28 11:57:52;;;;;;;19.23;12.93;;;;;;;24.40;72.77;98659.06;5143276;27;20394;-75
2021/06/28 12:00:29;;;;;;;23.23;11.80;;;;;;;24.34;70.71;98665.03;4491760;28;15422400;-78
2021/06/28 12:03:26;;;;;;;19.33;11.38;;;;;;;24.28;71.44;98673.63;5088002;27;20442;-77
2021/06/28 12:06:18;;;;;;;16.25;11.23;;;;;;;24.35;72.34;98663.19;5084744;27;20405;-81
2021/06/28 12:09:15;;;;;;;28.45;12.35;;;;;;;24.45;72.96;98661.28;5127310;27;20707;-72